Little Mountain, SC (29075)

7:36 AM EST on February 09, 2016 (GMT -0500)
Ashford | | Change Station
CLOSE
Current Station
Personal Weather Station
Location: Irmo, SC
Elevation: 318 ft
Nearby Weather Stations
Active Advisory: Lake Wind Advisory

Elev 318 ft 34.15 °N, 81.23 °W | Updated 2 seconds ago

Partly Cloudy
Partly Cloudy
33.2 °F
Feels Like 33 °F
N
0.0
Wind Variable Wind from North
Gusts 1.0 mph

Today
High -- | Low -- °F
--% Chance of Precip.
Yesterday
High -- | Low -- °F
Precip. -- in
Pressure 29.74 in
Visibility 10.0 miles
Clouds Clear
Windchill 33 °F
Dew Point 25 °F
Humidity 71%
Rainfall 0.00 in
Snow Depth Not available.
7:16 AM 6:02 PM
New Moon, 1% visible
METAR KFDW 091235Z AUTO 25006KT 10SM CLR 00/M05 A2974 RMK AO1
Pressure 29.74 in
Visibility 10.0 miles
Clouds Clear
Windchill 33 °F
Dew Point 25 °F
Humidity 71%
Rainfall 0.00 in
Snow Depth Not available.
7:16 AM 6:02 PM
New Moon, 1% visible
METAR KFDW 091235Z AUTO 25006KT 10SM CLR 00/M05 A2974 RMK AO1

10-Day Weather Forecast

Almanac

Astronomy

Feb. 09, 2016 Rise Set
Actual Time
Civil Twilight
Nautical Twilight
Astronomical Twilight
Moon
Length of Visible Light
Length of Day
Tomorrow will be .
, % of the Moon is Illuminated

Today's Extremes

State Highs State Lows

Community

WunderPhotos

Upload Photos

1,891,589 photos uploaded!

WunderBlog® & News

Nearby

Air Quality

  Air Quality AQ Index Pollutant
Not available.

Snow Depth

Station Depth Elevation

Earthquake Activity

City Distance Mag. Time & Date
Minimum magnitude displayed is 2.5.

Coastal Water Temperatures

Place Temperature

Stations

Nearby Weather Stations

Station Location Temp. Windchill Dew Point Humidity Wind Precip. Elev Updated Type
                   

Watches & Warnings

Lake Wind Advisory
Issued: 2:11 AM EST Feb. 9, 2016 – National Weather Service

... Lake Wind Advisory in effect until 11 PM EST Wednesday...

The National Weather Service in Columbia has issued a lake Wind
Advisory... which is in effect until 11 PM EST Wednesday.

* Timing... today through Wednesday evening.

* Winds... west 20 to 30 knots.

* Impacts... strong winds and rough chop will create hazardous
conditions for small craft and personal watercraft.

Precautionary/preparedness actions...

A lake Wind Advisory indicates that winds will cause rough chop
on area lakes. Small boats will be especially prone to capsizing.